Time;durP1;ratioP1;P1;durP2;ratioP2;P2;SDS_P1;SDS_P2;PMS_P1;PMS_P2;Temp;Humidity;BMP_temperature;BMP_pressure;BME280_temperature;BME280_humidity;BME280_pressure;Samples;Min_cycle;Max_cycle;Signal;HPM_P1;HPM_P2
2024/01/22 00:02:11;;;;;;;71.50;30.27;;;-2.30;90.30;;;-2.91;57.06;96678.72;5070093;28;20501;-57
2024/01/22 00:04:38;;;;;;;54.70;27.13;;;-2.30;90.40;;;-2.91;56.94;96683.88;5069888;28;20455;-57
2024/01/22 00:07:06;;;;;;;55.87;26.90;;;-2.30;90.30;;;-2.93;57.09;96683.03;5069725;28;20520;-57
2024/01/22 00:09:33;;;;;;;59.13;27.30;;;-2.40;90.10;;;-2.95;56.31;96681.31;5071937;28;20447;-58
2024/01/22 00:12:02;;;;;;;62.23;28.10;;;-2.40;90.30;;;-2.96;56.84;96684.75;5076024;28;20467;-65
2024/01/22 00:14:29;;;;;;;55.43;26.50;;;-2.40;90.50;;;-2.95;56.66;96692.47;5070117;28;20447;-64
2024/01/22 00:16:56;;;;;;;51.93;25.70;;;-2.40;90.30;;;-2.94;56.42;96688.19;5069278;28;20469;-64
2024/01/22 00:19:24;;;;;;;60.73;25.70;;;-2.40;90.20;;;-2.93;57.08;96692.44;5069624;28;20458;-64
2024/01/22 00:21:52;;;;;;;48.73;23.33;;;-2.40;90.30;;;-2.91;57.32;96698.47;5069699;28;20532;-57
2024/01/22 00:24:19;;;;;;;47.87;23.67;;;-2.40;90.30;;;-2.91;56.57;96699.31;5069272;28;20446;-64
2024/01/22 00:26:46;;;;;;;54.07;24.43;;;-2.30;90.30;;;-2.89;56.05;96697.56;5069818;28;20474;-58
2024/01/22 00:29:15;;;;;;;49.13;23.80;;;-2.30;90.20;;;-2.88;56.62;96696.72;5069666;28;20577;-64
2024/01/22 00:31:42;;;;;;;48.17;24.77;;;-2.30;90.10;;;-2.88;56.84;96693.28;5069450;28;20474;-57
2024/01/22 00:34:09;;;;;;;45.53;24.43;;;-2.30;90.20;;;-2.87;56.68;96694.97;5069475;28;20902;-64
2024/01/22 00:36:36;;;;;;;45.93;21.80;;;-2.30;90.60;;;-2.91;56.00;96698.47;5069728;28;20477;-58
2024/01/22 00:39:04;;;;;;;43.10;21.97;;;-2.30;90.20;;;-2.88;56.79;96698.44;5069400;28;20451;-56
2024/01/22 00:41:31;;;;;;;43.37;21.60;;;-2.30;90.20;;;-2.88;56.34;96695.88;5069506;28;20498;-63
2024/01/22 00:43:58;;;;;;;43.33;21.07;;;-2.30;90.20;;;-2.89;56.09;96692.41;5070615;28;20450;-65
2024/01/22 00:46:27;;;;;;;45.90;22.23;;;-2.40;90.10;;;-2.91;56.55;96691.59;5070814;28;20891;-58
2024/01/22 00:48:54;;;;;;;41.30;22.40;;;-2.30;90.10;;;-2.92;56.52;96692.44;5072956;28;20453;-64
2024/01/22 00:51:21;;;;;;;43.07;22.27;;;-2.30;89.80;;;-2.94;55.50;96688.19;5072655;28;20495;-57
2024/01/22 00:53:49;;;;;;;47.43;21.80;;;-2.40;89.50;;;-2.97;56.16;96683.91;5073002;28;20443;-58
2024/01/22 00:56:16;;;;;;;34.80;18.97;;;-2.40;89.50;;;-2.99;56.00;96672.78;5073060;28;20471;-64
2024/01/22 00:58:43;;;;;;;34.30;18.90;;;-2.40;89.30;;;-2.99;56.56;96677.06;5072822;28;20442;-57
2024/01/22 01:01:11;;;;;;;37.90;19.03;;;-2.40;89.50;;;-2.99;55.51;96671.91;5072801;28;20494;-59
2024/01/22 01:03:39;;;;;;;48.90;21.10;;;-2.40;89.40;;;-2.98;56.05;96684.78;5073033;28;20451;-58
2024/01/22 01:06:07;;;;;;;42.60;20.60;;;-2.40;89.50;;;-2.98;56.11;96681.34;5072606;28;20466;-58
2024/01/22 01:08:34;;;;;;;37.87;19.47;;;-2.40;89.60;;;-2.98;56.31;96676.22;5072797;28;20446;-64
2024/01/22 01:11:02;;;;;;;35.50;19.37;;;-2.40;89.80;;;-2.99;56.36;96674.50;5072959;28;20474;-58
2024/01/22 01:13:29;;;;;;;34.97;17.97;;;-2.40;90.10;;;-3.06;56.80;96669.41;5072490;28;20942;-58
2024/01/22 01:15:57;;;;;;;35.90;18.67;;;-2.50;90.50;;;-3.11;57.63;96678.03;5072416;28;20474;-58
2024/01/22 01:18:24;;;;;;;40.87;17.73;;;-2.50;90.70;;;-3.16;57.16;96675.50;5072282;28;20493;-64
2024/01/22 01:20:53;;;;;;;35.20;17.40;;;-2.60;90.60;;;-3.15;56.58;96668.63;5072845;28;20844;-57
2024/01/22 01:23:20;;;;;;;43.67;20.70;;;-2.60;90.70;;;-3.17;57.67;96667.78;5072168;28;20461;-58
2024/01/22 01:25:47;;;;;;;35.47;17.93;;;-2.60;91.00;;;-3.16;56.67;96666.91;5072473;28;20557;-57
2024/01/22 01:28:15;;;;;;;40.40;19.47;;;-2.60;90.90;;;-3.14;57.59;96671.19;5072187;28;20455;-64
2024/01/22 01:30:42;;;;;;;37.37;19.20;;;-2.60;91.10;;;-3.11;57.02;96673.72;5072116;28;20471;-64
2024/01/22 01:33:09;;;;;;;38.73;19.60;;;-2.60;91.00;;;-3.09;57.77;96668.56;5071885;28;20458;-57
2024/01/22 01:35:36;;;;;;;40.90;19.60;;;-2.50;91.10;;;-3.08;56.79;96672.88;5071865;28;21092;-58
2024/01/22 01:38:05;;;;;;;46.00;21.97;;;-2.50;90.80;;;-3.07;57.53;96669.41;5072118;28;20450;-58
2024/01/22 01:40:32;;;;;;;48.70;21.47;;;-2.50;90.80;;;-3.04;56.68;96671.09;5072183;28;20474;-57
2024/01/22 01:43:00;;;;;;;44.43;22.67;;;-2.50;90.70;;;-3.03;56.42;96665.09;5071846;28;20494;-57
2024/01/22 01:45:27;;;;;;;44.40;23.83;;;-2.50;90.80;;;-3.02;57.31;96670.25;5071620;28;20532;-65
2024/01/22 01:47:54;;;;;;;48.00;25.47;;;-2.50;90.80;;;-3.03;56.77;96660.81;5071903;28;20931;-64
2024/01/22 01:50:22;;;;;;;55.47;24.07;;;-2.50;90.60;;;-3.03;57.18;96658.22;5071743;28;20556;-57
2024/01/22 01:52:49;;;;;;;49.57;23.23;;;-2.50;90.50;;;-3.02;56.55;96659.06;5072010;28;20954;-57
2024/01/22 01:55:18;;;;;;;49.77;23.90;;;-2.50;90.50;;;-3.01;57.23;96660.78;5071759;28;20536;-57
2024/01/22 01:57:45;;;;;;;50.00;24.80;;;-2.50;90.60;;;-3.00;56.36;96668.50;5071463;28;20943;-66
2024/01/22 02:00:13;;;;;;;51.70;23.73;;;-2.50;90.60;;;-3.00;55.99;96658.19;5071602;28;21090;-64
2024/01/22 02:02:41;;;;;;;51.70;25.63;;;-2.40;90.50;;;-3.02;57.18;96652.22;5071581;28;20490;-57
2024/01/22 02:05:09;;;;;;;57.83;25.10;;;-2.40;90.60;;;-3.01;57.21;96661.63;5071401;28;20447;-56
2024/01/22 02:07:36;;;;;;;54.60;25.97;;;-2.40;90.60;;;-3.04;56.28;96661.66;5071478;28;20450;-57
2024/01/22 02:10:04;;;;;;;60.13;27.10;;;-2.40;90.60;;;-3.06;56.88;96663.41;5071478;28;20459;-63
2024/01/22 02:12:32;;;;;;;69.70;27.80;;;-2.50;90.50;;;-3.07;56.53;96664.25;5071423;28;20492;-64
2024/01/22 02:15:00;;;;;;;62.10;28.00;;;-2.50;90.70;;;-3.10;56.91;96659.13;5071198;28;20832;-57
2024/01/22 02:17:27;;;;;;;62.17;28.90;;;-2.50;90.90;;;-3.12;57.61;96655.72;5071307;28;20458;-65
2024/01/22 02:19:54;;;;;;;71.03;28.10;;;-2.50;91.00;;;-3.12;56.71;96659.16;5071307;28;20978;-57
2024/01/22 02:22:21;;;;;;;71.30;29.00;;;-2.50;91.00;;;-3.11;57.02;96649.72;5071055;28;20490;-58
2024/01/22 02:24:50;;;;;;;67.97;29.17;;;-2.50;91.10;;;-3.11;58.20;96649.72;5071061;28;20458;-58
2024/01/22 02:27:21;;;;;;;65.13;31.37;;;-2.50;91.60;;;-3.10;57.45;96656.56;5071243;28;20641;-64
2024/01/22 02:29:49;;;;;;;71.73;30.70;;;-2.50;91.60;;;-3.09;57.71;96650.56;5071470;28;20858;-58
2024/01/22 02:32:16;;;;;;;60.63;27.03;;;-2.50;91.60;;;-3.08;57.98;96645.41;5070842;28;20458;-58
2024/01/22 02:34:43;;;;;;;67.17;28.13;;;-2.50;91.90;;;-3.08;58.59;96640.25;5070440;28;20455;-57
2024/01/22 02:37:11;;;;;;;68.83;29.60;;;-2.50;92.30;;;-3.08;58.51;96645.41;5070912;28;20475;-57
2024/01/22 02:39:38;;;;;;;64.80;28.40;;;-2.50;92.10;;;-3.07;57.57;96641.09;5070594;28;20528;-58
2024/01/22 02:42:07;;;;;;;75.17;29.87;;;-2.50;92.00;;;-3.04;58.54;96646.22;5070440;28;20490;-64
2024/01/22 02:44:35;;;;;;;72.10;29.40;;;-2.50;92.10;;;-3.02;59.32;96644.50;5070799;28;20451;-63
2024/01/22 02:47:03;;;;;;;64.67;28.13;;;-2.50;92.60;;;-2.99;58.47;96641.03;5070865;28;20499;-58
2024/01/22 02:49:30;;;;;;;78.13;30.50;;;-2.40;92.50;;;-2.97;58.89;96637.56;5070346;28;20458;-56
2024/01/22 02:51:58;;;;;;;57.33;26.73;;;-2.40;92.30;;;-2.99;58.78;96639.31;5070162;28;20529;-57
2024/01/22 02:54:25;;;;;;;79.10;32.17;;;-2.40;92.80;;;-3.06;58.72;96642.81;5072789;28;20458;-65
2024/01/22 02:56:52;;;;;;;54.20;24.47;;;-2.50;93.40;;;-3.12;60.36;96637.72;5079837;28;20471;-58
2024/01/22 02:59:21;;;;;;;51.80;23.23;;;-2.50;94.10;;;-3.18;59.79;96635.19;5071674;28;20451;-64
2024/01/22 03:01:48;;;;;;;59.53;23.70;;;-2.60;93.90;;;-3.21;58.63;96637.78;5070963;28;20505;-65
2024/01/22 03:04:16;;;;;;;61.80;22.67;;;-2.60;93.60;;;-3.21;59.65;96635.22;5070887;28;20477;-58
2024/01/22 03:06:43;;;;;;;58.17;25.07;;;-2.70;94.00;;;-3.20;59.91;96639.50;5071750;28;20479;-64
2024/01/22 03:09:10;;;;;;;59.60;24.50;;;-2.70;94.60;;;-3.20;61.00;96642.94;5072541;28;20464;-64
2024/01/22 03:11:38;;;;;;;58.30;23.80;;;-2.70;94.80;;;-3.19;60.08;96654.94;5070346;28;20475;-57
2024/01/22 03:14:05;;;;;;;52.93;24.07;;;-2.60;94.60;;;-3.16;60.04;96646.31;5070255;28;20458;-64
2024/01/22 03:16:34;;;;;;;68.60;25.73;;;-2.60;94.40;;;-3.14;60.40;96644.59;5070387;28;20475;-57
2024/01/22 03:19:01;;;;;;;64.67;25.87;;;-2.60;94.40;;;-3.13;59.45;96642.03;5070546;28;20796;-58
2024/01/22 03:21:28;;;;;;;58.33;26.10;;;-2.60;94.30;;;-3.10;60.76;96642.00;5070323;28;20493;-57
2024/01/22 03:23:55;;;;;;;65.07;26.40;;;-2.60;94.60;;;-3.07;60.18;96656.53;5070191;28;20447;-64
2024/01/22 03:26:23;;;;;;;67.93;26.30;;;-2.50;94.40;;;-3.06;60.34;96663.41;5070374;28;20463;-56
2024/01/22 03:28:52;;;;;;;70.07;26.97;;;-2.50;94.70;;;-3.03;60.31;96654.81;5070292;28;20455;-57
2024/01/22 03:31:23;;;;;;;61.20;26.30;;;-2.50;94.70;;;-3.00;60.91;96657.34;5069964;28;20506;-65
2024/01/22 03:33:52;;;;;;;59.07;25.90;;;-2.50;94.70;;;-3.01;61.04;96661.63;5069939;28;20545;-64
2024/01/22 03:36:21;;;;;;;57.57;23.43;;;-2.50;95.50;;;-3.04;60.78;96660.81;5069769;28;20891;-65
2024/01/22 03:38:48;;;;;;;55.03;23.10;;;-2.50;95.20;;;-3.04;60.72;96663.38;5069924;28;20537;-57
2024/01/22 03:41:15;;;;;;;51.90;21.97;;;-2.50;94.70;;;-3.01;60.32;96659.06;5069705;28;20987;-57
2024/01/22 03:43:43;;;;;;;70.67;24.83;;;-2.50;94.90;;;-2.99;60.60;96659.91;5069562;28;20522;-57
2024/01/22 03:46:10;;;;;;;52.63;22.43;;;-2.50;95.30;;;-3.00;61.59;96663.34;5069822;28;20514;-56
2024/01/22 03:48:37;;;;;;;47.00;22.40;;;-2.50;95.70;;;-3.05;60.32;96659.97;5069753;28;20523;-65
2024/01/22 03:51:06;;;;;;;43.47;21.20;;;-2.50;95.50;;;-3.06;59.85;96655.69;5069837;28;20479;-65
2024/01/22 03:53:34;;;;;;;53.03;22.67;;;-2.50;95.00;;;-3.11;61.94;96657.44;5069802;28;20489;-58
2024/01/22 03:56:04;;;;;;;48.47;22.37;;;-2.60;95.90;;;-3.16;59.84;96656.63;5070024;28;20532;-60
2024/01/22 03:58:31;;;;;;;54.33;21.97;;;-2.60;95.30;;;-3.19;60.33;96651.50;5070243;28;20447;-57
2024/01/22 04:00:59;;;;;;;53.03;24.30;;;-2.60;95.30;;;-3.22;60.66;96659.22;5069492;28;20458;-65
2024/01/22 04:03:26;;;;;;;60.80;24.97;;;-2.70;95.50;;;-3.25;60.36;96655.84;5069768;28;20567;-64
2024/01/22 04:05:53;;;;;;;48.10;22.40;;;-2.70;95.50;;;-3.22;61.69;96659.22;5069903;28;20854;-57
2024/01/22 04:08:22;;;;;;;46.50;20.83;;;-2.70;96.20;;;-3.21;61.29;96658.38;5069702;28;20447;-64
2024/01/22 04:10:49;;;;;;;51.30;23.80;;;-2.70;95.40;;;-3.19;60.50;96660.09;5064521;28;20471;-65
2024/01/22 04:13:16;;;;;;;51.37;23.30;;;-2.60;95.50;;;-3.15;60.62;96658.31;5059497;28;20454;-65
2024/01/22 04:15:44;;;;;;;60.93;24.20;;;-2.60;95.40;;;-3.12;60.03;96660.88;5061364;28;21060;-65
2024/01/22 04:18:11;;;;;;;48.67;23.50;;;-2.60;95.30;;;-3.11;60.22;96665.16;5070001;28;20982;-65
2024/01/22 04:20:39;;;;;;;51.87;23.17;;;-2.60;95.60;;;-3.12;60.65;96660.88;5070624;28;20941;-65
2024/01/22 04:23:06;;;;;;;56.70;24.47;;;-2.60;95.50;;;-3.12;59.97;96658.31;5073892;28;20498;-58
2024/01/22 04:25:34;;;;;;;44.77;23.10;;;-2.60;95.40;;;-3.16;61.02;96654.03;5073359;28;20471;-58
2024/01/22 04:28:02;;;;;;;49.60;23.87;;;-2.60;95.70;;;-3.20;62.22;96644.66;5073549;28;20458;-64
2024/01/22 04:30:29;;;;;;;61.80;25.20;;;-2.60;96.40;;;-3.19;60.61;96647.22;5073149;28;20463;-58
2024/01/22 04:32:56;;;;;;;50.90;23.53;;;-2.60;95.90;;;-3.17;61.33;96647.22;5073449;28;20459;-58
2024/01/22 04:35:23;;;;;;;53.37;24.77;;;-2.60;96.10;;;-3.16;60.67;96644.63;5073483;28;20471;-58
2024/01/22 04:37:51;;;;;;;50.20;24.23;;;-2.60;95.70;;;-3.12;60.83;96648.84;5073766;28;20451;-63
2024/01/22 04:40:19;;;;;;;52.57;25.20;;;-2.60;96.00;;;-3.10;60.20;96651.41;5072955;28;21006;-63
2024/01/22 04:42:48;;;;;;;54.50;25.00;;;-2.60;96.00;;;-3.11;60.34;96657.44;5072977;28;20493;-58
2024/01/22 04:45:15;;;;;;;67.33;25.90;;;-2.60;95.90;;;-3.14;61.41;96671.19;5073011;28;20470;-58
2024/01/22 04:47:42;;;;;;;47.23;22.27;;;-2.60;95.90;;;-3.20;61.01;96662.66;5072927;28;20981;-63
2024/01/22 04:50:10;;;;;;;51.37;24.27;;;-2.60;96.00;;;-3.30;62.07;96670.47;5073305;28;20458;-58
2024/01/22 04:52:38;;;;;;;44.77;22.20;;;-2.70;96.30;;;-3.36;60.47;96670.50;5072638;28;20454;-58
2024/01/22 04:55:06;;;;;;;47.87;21.70;;;-2.80;96.10;;;-3.39;61.34;96667.94;5072478;28;20470;-58
2024/01/22 04:57:33;;;;;;;56.50;24.53;;;-2.80;96.00;;;-3.42;61.84;96670.53;5072516;28;20986;-62
2024/01/22 05:00:02;;;;;;;48.80;21.30;;;-2.90;96.50;;;-3.46;60.79;96674.00;5072980;28;20455;-57
2024/01/22 05:02:29;;;;;;;45.70;21.00;;;-2.90;96.40;;;-3.46;60.98;96674.00;5071131;28;20487;-58
2024/01/22 05:04:57;;;;;;;43.37;23.50;;;-2.90;96.60;;;-3.44;63.96;96677.41;5073096;28;20458;-58
2024/01/22 05:07:25;;;;;;;47.80;24.10;;;-2.90;98.30;;;-3.43;61.70;96668.81;5073001;28;20484;-64
2024/01/22 05:09:57;;;;;;;54.63;24.37;;;-2.90;97.30;;;-3.35;61.58;96659.31;5073225;28;21049;-59
2024/01/22 05:12:24;;;;;;;53.03;22.77;;;-2.90;96.90;;;-3.29;61.16;96672.16;5072625;28;21087;-58
2024/01/22 05:14:52;;;;;;;43.83;20.70;;;-2.80;96.60;;;-3.24;61.66;96679.84;5074867;28;20454;-65
2024/01/22 05:17:21;;;;;;;46.33;23.30;;;-2.70;96.60;;;-3.19;60.57;96667.81;5073682;28;20615;-58
2024/01/22 05:19:49;;;;;;;46.33;21.00;;;-2.70;96.40;;;-3.13;61.02;96679.75;5072903;28;20470;-63
2024/01/22 05:22:16;;;;;;;47.67;21.67;;;-2.60;96.20;;;-3.10;60.18;96677.16;5072904;28;20454;-62
2024/01/22 05:24:44;;;;;;;54.50;23.50;;;-2.60;95.90;;;-3.10;60.50;96669.44;5072973;28;20465;-62
2024/01/22 05:27:11;;;;;;;43.10;20.70;;;-2.60;96.10;;;-3.12;60.22;96668.59;5072349;28;20501;-63
2024/01/22 05:29:38;;;;;;;42.20;21.27;;;-2.60;95.90;;;-3.14;60.58;96673.75;5072502;28;20455;-63
2024/01/22 05:32:06;;;;;;;44.03;20.83;;;-2.60;95.80;;;-3.17;61.07;96675.50;5070996;28;20467;-58
2024/01/22 05:34:35;;;;;;;47.87;22.10;;;-2.60;95.90;;;-3.20;61.39;96675.53;5071255;28;20447;-58
2024/01/22 05:37:02;;;;;;;45.27;21.30;;;-2.70;96.30;;;-3.19;61.77;96672.94;5072714;28;20898;-62
2024/01/22 05:39:29;;;;;;;53.03;21.50;;;-2.70;96.40;;;-3.21;60.30;96669.50;5070913;28;20813;-57
2024/01/22 05:41:58;;;;;;;44.00;21.90;;;-2.70;95.80;;;-3.24;60.92;96666.97;5067601;28;20490;-58
2024/01/22 05:44:25;;;;;;;44.77;20.13;;;-2.70;95.80;;;-3.25;60.35;96662.69;5059626;28;20921;-63
2024/01/22 05:46:53;;;;;;;42.63;19.50;;;-2.70;95.50;;;-3.26;60.65;96661.81;5068436;28;20474;-58
2024/01/22 05:49:20;;;;;;;45.80;21.50;;;-2.70;95.20;;;-3.29;60.29;96669.56;5071642;28;20447;-58
2024/01/22 05:51:49;;;;;;;41.77;18.77;;;-2.70;95.20;;;-3.28;59.81;96663.56;5071832;28;20479;-58
2024/01/22 05:54:17;;;;;;;37.77;19.80;;;-2.70;95.30;;;-3.23;59.73;96665.28;5070797;28;20455;-62
2024/01/22 05:56:44;;;;;;;42.70;20.00;;;-2.70;95.20;;;-3.21;60.25;96663.53;5071627;28;20477;-63
2024/01/22 05:59:12;;;;;;;41.03;19.07;;;-2.70;95.30;;;-3.20;59.98;96660.09;5072071;28;20525;-62
2024/01/22 06:01:39;;;;;;;54.67;23.67;;;-2.70;95.30;;;-3.18;59.72;96673.78;5071154;28;20483;-58
2024/01/22 06:04:07;;;;;;;45.17;21.77;;;-2.60;95.40;;;-3.15;59.62;96674.63;5070184;28;20931;-63
2024/01/22 06:06:34;;;;;;;45.73;20.50;;;-2.70;95.20;;;-3.15;59.94;96684.06;5071368;28;21016;-62
2024/01/22 06:09:03;;;;;;;44.37;20.67;;;-2.60;95.20;;;-3.17;59.33;96689.22;5071635;28;20447;-58
2024/01/22 06:11:30;;;;;;;45.33;21.30;;;-2.60;95.20;;;-3.17;59.84;96694.38;5071237;28;21026;-63
2024/01/22 06:13:58;;;;;;;37.23;19.30;;;-2.60;95.30;;;-3.19;59.74;96697.81;5071539;28;20569;-63
2024/01/22 06:16:25;;;;;;;46.17;23.40;;;-2.60;95.20;;;-3.21;59.94;96689.25;5071054;28;20552;-57
2024/01/22 06:18:52;;;;;;;47.40;21.87;;;-2.70;95.10;;;-3.21;60.58;96694.41;5071314;28;20450;-58
2024/01/22 06:21:20;;;;;;;40.23;19.50;;;-2.70;95.20;;;-3.21;59.56;96692.66;5070918;28;20479;-63
2024/01/22 06:23:47;;;;;;;43.70;20.10;;;-2.70;95.20;;;-3.21;59.97;96699.56;5070895;28;20490;-63
2024/01/22 06:26:17;;;;;;;50.97;20.03;;;-2.70;95.10;;;-3.21;59.80;96687.53;5071168;28;20479;-58
2024/01/22 06:28:47;;;;;;;40.80;19.97;;;-2.70;95.30;;;-3.21;60.13;96697.81;5071146;28;20455;-57
2024/01/22 06:31:14;;;;;;;43.47;18.67;;;-2.70;95.60;;;-3.27;59.55;96696.16;5070755;28;21054;-63
2024/01/22 06:33:42;;;;;;;50.10;21.40;;;-2.70;95.40;;;-3.27;60.26;96695.28;5070190;28;20932;-58
2024/01/22 06:36:09;;;;;;;53.50;21.40;;;-2.70;95.60;;;-3.29;61.07;96692.72;5071590;28;20843;-58
2024/01/22 06:38:36;;;;;;;52.80;22.63;;;-2.80;95.80;;;-3.26;59.85;96695.28;5070729;28;20458;-63
2024/01/22 06:41:04;;;;;;;46.17;21.70;;;-2.70;95.60;;;-3.25;60.60;96693.59;5070500;28;20483;-63
2024/01/22 06:43:32;;;;;;;51.40;20.90;;;-2.80;95.50;;;-3.22;59.85;96701.28;5069819;28;20493;-63
2024/01/22 06:46:00;;;;;;;45.37;21.37;;;-2.70;95.60;;;-3.19;59.91;96701.25;5070620;28;20459;-63
2024/01/22 06:48:27;;;;;;;39.63;17.50;;;-2.70;95.50;;;-3.21;60.23;96705.53;5071032;28;20545;-57
2024/01/22 06:50:55;;;;;;;48.53;19.10;;;-2.70;95.40;;;-3.22;59.75;96702.97;5070744;28;20881;-63
2024/01/22 06:53:22;;;;;;;38.97;18.90;;;-2.70;95.30;;;-3.22;60.31;96705.53;5070309;28;20459;-58
2024/01/22 06:55:49;;;;;;;37.83;18.77;;;-2.70;95.40;;;-3.20;60.59;96707.25;5070344;28;20475;-65
2024/01/22 06:58:16;;;;;;;44.30;21.70;;;-2.70;95.40;;;-3.14;59.86;96707.22;5070578;28;20834;-58
2024/01/22 07:00:45;;;;;;;42.53;20.00;;;-2.60;95.60;;;-3.11;60.75;96714.91;5070289;28;20471;-63
2024/01/22 07:03:13;;;;;;;38.47;18.53;;;-2.60;95.60;;;-3.08;60.06;96721.78;5069748;28;20486;-62
2024/01/22 07:05:41;;;;;;;45.50;20.47;;;-2.50;95.70;;;-3.06;60.87;96723.44;5070056;28;20612;-57
2024/01/22 07:08:08;;;;;;;40.73;19.53;;;-2.60;95.40;;;-3.07;60.52;96710.59;5069939;28;20542;-56
2024/01/22 07:10:35;;;;;;;59.30;22.80;;;-2.50;95.50;;;-3.09;60.72;96714.91;5070077;28;20494;-58
2024/01/22 07:13:03;;;;;;;51.50;20.93;;;-2.60;95.90;;;-3.11;60.33;96716.63;5071180;28;20454;-58
2024/01/22 07:15:31;;;;;;;55.67;21.87;;;-2.60;95.90;;;-3.08;60.68;96711.47;5069956;28;20585;-62
2024/01/22 07:18:00;;;;;;;43.63;19.90;;;-2.50;96.00;;;-3.03;60.20;96719.16;5069677;28;20450;-63
2024/01/22 07:20:28;;;;;;;48.10;22.07;;;-2.50;96.00;;;-2.98;60.21;96709.66;5069863;28;20481;-57
2024/01/22 07:22:55;;;;;;;53.73;23.00;;;-2.50;95.60;;;-2.94;60.67;96711.38;5069380;28;20520;-65
2024/01/22 07:25:24;;;;;;;39.47;20.20;;;-2.40;95.70;;;-2.94;60.92;96709.63;5069316;28;21037;-63
2024/01/22 07:27:51;;;;;;;44.53;21.70;;;-2.40;95.50;;;-2.94;60.53;96716.50;5069445;28;20455;-63
2024/01/22 07:30:18;;;;;;;40.17;19.60;;;-2.40;95.40;;;-2.95;59.49;96713.06;5069295;28;20478;-58
2024/01/22 07:32:47;;;;;;;49.10;23.30;;;-2.40;95.30;;;-2.93;59.85;96707.91;5068315;28;20550;-59
2024/01/22 07:35:16;;;;;;;42.27;19.47;;;-2.40;95.40;;;-2.92;62.94;96707.03;5069228;28;20857;-57
2024/01/22 07:37:45;;;;;;;55.77;22.73;;;-2.40;98.50;;;-2.78;63.83;96709.50;5069614;28;20451;-63
2024/01/22 07:40:12;;;;;;;48.40;23.07;;;-2.30;99.80;;;-2.65;61.24;96705.97;5069263;28;20517;-58
2024/01/22 07:42:41;;;;;;;48.23;20.90;;;-2.20;97.40;;;-2.59;61.39;96705.88;5069570;28;20459;-58
2024/01/22 07:45:10;;;;;;;59.10;22.13;;;-2.10;97.00;;;-2.57;59.91;96703.28;5069402;28;20875;-58
2024/01/22 07:47:38;;;;;;;44.33;19.63;;;-2.10;96.30;;;-2.60;60.62;96706.75;5070470;28;20455;-58
2024/01/22 07:50:10;;;;;;;47.63;21.57;;;-2.10;96.00;;;-2.61;60.25;96705.03;5069533;28;20554;-64
2024/01/22 07:52:39;;;;;;;38.20;19.77;;;-2.10;95.80;;;-2.65;59.83;96705.97;5069548;28;20470;-57
2024/01/22 07:55:08;;;;;;;66.00;27.10;;;-2.10;95.80;;;-2.64;60.45;96697.34;5069226;28;20532;-63
2024/01/22 07:57:35;;;;;;;46.40;23.53;;;-2.10;95.80;;;-2.64;60.43;96701.66;5069603;28;20554;-58
2024/01/22 08:00:03;;;;;;;47.27;23.70;;;-2.10;95.80;;;-2.67;60.27;96694.78;5069032;28;20443;-58
2024/01/22 08:02:30;;;;;;;59.93;24.47;;;-2.20;95.80;;;-2.74;59.81;96699.16;5069805;28;20457;-62
2024/01/22 08:04:57;;;;;;;57.37;24.83;;;-2.20;95.80;;;-2.73;60.75;96689.69;5068574;28;20486;-57
2024/01/22 08:07:25;;;;;;;51.53;23.80;;;-2.20;96.10;;;-2.68;60.37;96689.66;5068946;28;20947;-58
2024/01/22 08:09:53;;;;;;;53.10;23.93;;;-2.20;96.10;;;-2.64;60.76;96676.75;5069413;28;20463;-63
2024/01/22 08:12:21;;;;;;;66.67;26.37;;;-2.10;96.00;;;-2.54;60.76;96677.50;5069071;28;20458;-58
2024/01/22 08:14:48;;;;;;;65.37;23.20;;;-2.10;96.10;;;-2.46;60.39;96672.25;5069139;28;20508;-58
2024/01/22 08:17:15;;;;;;;49.37;22.60;;;-1.90;96.50;;;-2.40;60.64;96673.06;5068991;28;20651;-58
2024/01/22 08:19:43;;;;;;;59.27;24.03;;;-1.90;96.10;;;-2.33;60.34;96671.25;5069553;28;20459;-58
2024/01/22 08:22:11;;;;;;;54.77;25.40;;;-1.80;96.00;;;-2.25;60.07;96664.28;5069601;28;20501;-58
2024/01/22 08:24:38;;;;;;;63.90;28.37;;;-1.80;95.80;;;-2.20;59.70;96670.28;5069329;28;20574;-58
2024/01/22 08:27:06;;;;;;;56.73;27.77;;;-1.70;95.50;;;-2.19;59.53;96673.69;5068911;28;20987;-63
2024/01/22 08:29:34;;;;;;;53.83;22.67;;;-1.70;95.50;;;-2.19;59.25;96684.84;5068981;28;20584;-58
2024/01/22 08:32:01;;;;;;;56.07;27.03;;;-1.70;95.00;;;-2.26;59.23;96688.38;5067602;28;20470;-63
2024/01/22 08:34:28;;;;;;;63.43;26.47;;;-1.80;95.00;;;-2.35;59.57;96688.47;5068448;28;20855;-58
2024/01/22 08:36:56;;;;;;;46.63;22.87;;;-1.80;95.30;;;-2.38;60.13;96685.94;5068916;28;20553;-64
2024/01/22 08:39:23;;;;;;;60.53;26.87;;;-1.90;95.20;;;-2.39;60.12;96681.63;5069219;28;20455;-63
2024/01/22 08:41:50;;;;;;;59.60;25.70;;;-1.90;95.50;;;-2.36;59.86;96676.44;5069015;28;20519;-58
2024/01/22 08:44:19;;;;;;;64.23;22.37;;;-1.90;95.60;;;-2.29;59.92;96682.38;5068935;28;20491;-63
2024/01/22 08:46:46;;;;;;;61.30;27.00;;;-1.80;95.30;;;-2.27;59.19;96675.50;5069059;28;20466;-63
2024/01/22 08:49:14;;;;;;;53.40;24.30;;;-1.80;95.20;;;-2.23;59.83;96678.03;5069171;28;20454;-63
2024/01/22 08:51:42;;;;;;;71.07;25.30;;;-1.80;95.10;;;-2.17;59.84;96669.34;5068848;28;20589;-64
2024/01/22 08:54:10;;;;;;;68.07;25.60;;;-1.70;95.20;;;-2.09;59.17;96679.56;5068798;28;20516;-58
2024/01/22 08:56:37;;;;;;;56.17;23.63;;;-1.60;95.20;;;-2.01;59.21;96688.09;5070547;28;20462;-64
2024/01/22 08:59:04;;;;;;;56.70;23.50;;;-1.60;95.10;;;-1.96;59.00;96691.47;5069749;28;20952;-59
2024/01/22 09:01:34;;;;;;;52.97;24.57;;;-1.50;94.80;;;-1.98;58.61;96688.06;5069027;28;20466;-63
2024/01/22 09:04:02;;;;;;;63.97;22.77;;;-1.50;94.80;;;-2.01;58.78;96682.94;5068079;28;20515;-58
2024/01/22 09:06:29;;;;;;;59.10;24.00;;;-1.50;94.90;;;-2.00;58.68;96684.63;5069245;28;20473;-63
2024/01/22 09:08:56;;;;;;;59.23;25.43;;;-1.50;94.80;;;-2.03;58.68;96675.22;5072686;28;20458;-63
2024/01/22 09:11:24;;;;;;;54.90;25.10;;;-1.50;95.20;;;-2.00;58.98;96674.31;5072225;28;20479;-58
2024/01/22 09:13:51;;;;;;;57.97;25.97;;;-1.50;94.90;;;-1.98;59.00;96668.28;5072544;28;20865;-64
2024/01/22 09:16:21;;;;;;;69.77;24.50;;;-1.50;94.90;;;-1.97;59.44;96663.97;5072153;28;20967;-58
2024/01/22 09:18:49;;;;;;;53.63;23.80;;;-1.50;94.90;;;-1.93;59.21;96659.63;5072336;28;20452;-58
2024/01/22 09:21:17;;;;;;;51.80;24.33;;;-1.50;94.80;;;-1.91;58.98;96658.72;5071840;28;20475;-59
2024/01/22 09:23:44;;;;;;;65.90;23.63;;;-1.40;94.90;;;-1.84;58.95;96665.53;5072034;28;20487;-58
2024/01/22 09:26:11;;;;;;;58.43;25.67;;;-1.40;94.90;;;-1.75;59.73;96666.25;5071704;28;20587;-56
2024/01/22 09:28:39;;;;;;;57.97;24.33;;;-1.30;95.20;;;-1.67;59.00;96672.19;5071920;28;20447;-63
2024/01/22 09:31:06;;;;;;;66.43;26.57;;;-1.20;94.90;;;-1.62;59.00;96675.53;5071908;28;20478;-58
2024/01/22 09:33:33;;;;;;;64.20;26.13;;;-1.20;94.70;;;-1.55;58.73;96676.31;5072098;28;20450;-62
2024/01/22 09:36:04;;;;;;;58.83;24.73;;;-1.10;94.60;;;-1.52;58.26;96674.56;5071844;28;20459;-57
2024/01/22 09:38:31;;;;;;;61.90;29.30;;;-1.10;94.40;;;-1.54;57.93;96672.84;5072119;28;20850;-58
2024/01/22 09:40:58;;;;;;;77.07;27.93;;;-1.10;94.00;;;-1.64;58.50;96664.41;5071773;28;20467;-63
2024/01/22 09:43:26;;;;;;;68.17;28.70;;;-1.10;94.00;;;-1.77;58.63;96671.44;5072618;28;20832;-63
2024/01/22 09:45:54;;;;;;;57.43;27.00;;;-1.20;94.40;;;-1.82;58.96;96673.22;5071495;28;20495;-62
2024/01/22 09:48:21;;;;;;;84.70;26.10;;;-1.30;94.50;;;-1.88;59.54;96663.00;5071995;28;20459;-63
2024/01/22 09:50:50;;;;;;;59.23;25.40;;;-1.40;95.00;;;-1.89;59.07;96654.41;5071590;28;20479;-58
2024/01/22 09:53:19;;;;;;;68.07;26.20;;;-1.40;94.90;;;-1.79;59.86;96652.56;5072603;28;20524;-62
2024/01/22 09:55:46;;;;;;;68.83;29.80;;;-1.30;95.20;;;-1.68;59.04;96655.84;5071349;28;20578;-57
2024/01/22 09:58:19;;;;;;;74.17;28.67;;;-1.30;95.20;;;-1.55;59.21;96660.81;5071280;28;20455;-64
2024/01/22 10:00:46;;;;;;;67.83;29.10;;;-1.20;95.00;;;-1.45;59.43;96654.66;5071121;28;20479;-63
2024/01/22 10:03:14;;;;;;;57.10;27.10;;;-1.00;95.10;;;-1.31;58.85;96646.72;5069733;28;20442;-59
2024/01/22 10:05:41;;;;;;;65.00;27.20;;;-0.90;94.80;;;-1.18;58.72;96648.19;5071050;28;20497;-58
2024/01/22 10:08:09;;;;;;;74.30;31.40;;;-0.80;94.80;;;-1.04;58.51;96642.81;5071268;28;20459;-58